Time;durP1;ratioP1;P1;durP2;ratioP2;P2;SDS_P1;SDS_P2;PMS_P1;PMS_P2;Temp;Humidity;BMP_temperature;BMP_pressure;BME280_temperature;BME280_humidity;BME280_pressure;Samples;Min_cycle;Max_cycle;Signal;HPM_P1;HPM_P2
2023/06/24 00:03:37;;;;;;;;;;;19.60;99.90;;;;;;8445203;27;19928;-71
2023/06/24 00:07:44;;;;;;;;;;;19.60;99.90;;;;;;8434241;27;19928;-71
2023/06/24 00:11:46;;;;;;;;;;;19.60;99.90;;;;;;8458254;27;19958;-71
2023/06/24 00:15:48;;;;;;;;;;;19.60;99.90;;;;;;8449013;27;19931;-70
2023/06/24 00:19:49;;;;;;;;;;;19.60;99.90;;;;;;8426677;27;19931;-70
2023/06/24 00:23:51;;;;;;;;;;;19.60;99.90;;;;;;8451205;27;19924;-70
2023/06/24 00:27:52;;;;;;;;;;;19.60;99.90;;;;;;8434556;27;19939;-71
2023/06/24 00:31:55;;;;;;;;;;;19.60;99.90;;;;;;8426115;27;19923;-71
2023/06/24 00:35:57;;;;;;;;;;;19.50;99.90;;;;;;8434960;27;19928;-70
2023/06/24 00:39:58;;;;;;;;;;;19.50;99.90;;;;;;8444511;27;19935;-70
2023/06/24 00:44:01;;;;;;;;;;;19.50;99.90;;;;;;8437964;27;19981;-70
2023/06/24 00:48:03;;;;;;;;;;;19.50;99.90;;;;;;8447108;27;19928;-71
2023/06/24 00:52:05;;;;;;;;;;;19.40;99.90;;;;;;8451829;27;20358;-71
2023/06/24 00:56:06;;;;;;;;;;;19.40;99.90;;;;;;8439379;27;20287;-71
2023/06/24 01:00:18;;;;;;;;;;;19.40;99.90;;;;;;8424085;27;19970;-70
2023/06/24 01:04:20;;;;;;;;;;;19.30;99.90;;;;;;8440881;27;19967;-70
2023/06/24 01:08:22;;;;;;;;;;;19.30;99.90;;;;;;8427663;27;20020;-70
2023/06/24 01:12:24;;;;;;;;;;;19.30;99.90;;;;;;8436860;28;19932;-71
2023/06/24 01:16:29;;;;;;;;;;;19.20;99.90;;;;;;8440089;28;19953;-70
2023/06/24 01:20:37;;;;;;;;;;;19.20;99.90;;;;;;8433053;28;19932;-71
2023/06/24 01:24:46;;;;;;;;;;;19.20;99.90;;;;;;8447579;27;19976;-71
2023/06/24 01:29:06;;;;;;;;;;;19.10;99.90;;;;;;8438493;27;19928;-70
2023/06/24 01:33:09;;;;;;;;;;;19.00;99.90;;;;;;8440217;27;19971;-71
2023/06/24 01:37:17;;;;;;;;;;;19.00;99.90;;;;;;8442042;27;20024;-70
2023/06/24 01:41:22;;;;;;;;;;;19.00;99.90;;;;;;8442977;27;20358;-70
2023/06/24 01:45:28;;;;;;;;;;;18.90;99.90;;;;;;8442396;28;19923;-70
2023/06/24 01:49:30;;;;;;;;;;;18.90;99.90;;;;;;8427699;28;19969;-70
2023/06/24 01:53:38;;;;;;;;;;;18.80;99.90;;;;;;8442634;28;20299;-70
2023/06/24 01:57:41;;;;;;;;;;;18.70;99.90;;;;;;8419225;28;19935;-70
2023/06/24 02:01:43;;;;;;;;;;;18.70;99.90;;;;;;8434713;28;19985;-70
2023/06/24 02:05:46;;;;;;;;;;;18.70;99.90;;;;;;8438970;28;19994;-70
2023/06/24 02:09:49;;;;;;;;;;;18.60;99.90;;;;;;8451763;27;19924;-70
2023/06/24 02:13:53;;;;;;;;;;;18.60;99.90;;;;;;8441488;28;19928;-70
2023/06/24 02:17:56;;;;;;;;;;;18.50;99.90;;;;;;8440735;27;20330;-70
2023/06/24 02:21:59;;;;;;;;;;;18.50;99.90;;;;;;8442042;27;19934;-70
2023/06/24 02:26:01;;;;;;;;;;;18.40;99.90;;;;;;8448733;27;20425;-71
2023/06/24 02:30:04;;;;;;;;;;;18.40;99.90;;;;;;8449596;27;20337;-70
2023/06/24 02:34:06;;;;;;;;;;;18.30;99.90;;;;;;8446412;27;20391;-70
2023/06/24 02:38:08;;;;;;;;;;;18.30;99.90;;;;;;8445278;27;19923;-71
2023/06/24 02:42:10;;;;;;;;;;;18.20;99.90;;;;;;8449036;27;19924;-70
2023/06/24 02:46:12;;;;;;;;;;;18.20;99.90;;;;;;8450032;27;19927;-70
2023/06/24 02:50:17;;;;;;;;;;;18.10;99.90;;;;;;8451516;27;19928;-70
2023/06/24 02:54:19;;;;;;;;;;;18.10;99.90;;;;;;8451975;27;19939;-70
2023/06/24 02:58:21;;;;;;;;;;;18.00;99.90;;;;;;8445847;27;20005;-71
2023/06/24 03:02:23;;;;;;;;;;;18.00;99.90;;;;;;8445544;27;19923;-70
2023/06/24 03:06:26;;;;;;;;;;;18.00;99.90;;;;;;8443217;27;19924;-71
2023/06/24 03:10:28;;;;;;;;;;;17.90;99.90;;;;;;8425950;27;19923;-71
2023/06/24 03:14:29;;;;;;;;;;;17.90;99.90;;;;;;8447001;27;20352;-70
2023/06/24 03:18:31;;;;;;;;;;;17.80;99.90;;;;;;8441603;27;20378;-70
2023/06/24 03:22:33;;;;;;;;;;;17.80;99.90;;;;;;8452895;27;19960;-70
2023/06/24 03:26:35;;;;;;;;;;;17.70;99.90;;;;;;8431878;27;19927;-70
2023/06/24 03:30:37;;;;;;;;;;;17.70;99.90;;;;;;8437388;27;19932;-70
2023/06/24 03:34:38;;;;;;;;;;;17.70;99.90;;;;;;8455495;27;19943;-70
2023/06/24 03:38:40;;;;;;;;;;;17.60;99.90;;;;;;8445787;27;19927;-70
2023/06/24 03:42:42;;;;;;;;;;;17.60;99.90;;;;;;8434766;27;20380;-70
2023/06/24 03:46:44;;;;;;;;;;;17.50;99.90;;;;;;8436380;27;19934;-70
2023/06/24 03:50:45;;;;;;;;;;;17.50;99.90;;;;;;8442486;27;19939;-70
2023/06/24 03:54:47;;;;;;;;;;;17.50;99.90;;;;;;8444053;27;19977;-70
2023/06/24 03:58:49;;;;;;;;;;;17.40;99.90;;;;;;8445817;27;19977;-70
2023/06/24 04:02:52;;;;;;;;;;;17.50;99.90;;;;;;8423983;27;20031;-71
2023/06/24 04:17:01;;;;;;;;;;;17.50;99.90;;;;;;8448487;28;19956;-70
2023/06/24 04:21:03;;;;;;;;;;;17.60;99.90;;;;;;8451773;27;20154;-71
2023/06/24 04:25:05;;;;;;;;;;;17.60;99.90;;;;;;8438855;27;19931;-71
2023/06/24 04:29:07;;;;;;;;;;;17.60;99.90;;;;;;8443171;28;19973;-70
2023/06/24 04:33:09;;;;;;;;;;;17.70;99.90;;;;;;8441412;27;19928;-70
2023/06/24 04:37:11;;;;;;;;;;;17.80;99.90;;;;;;8451459;27;19995;-70
2023/06/24 04:41:13;;;;;;;;;;;17.80;99.90;;;;;;8440735;27;19924;-70
2023/06/24 04:45:14;;;;;;;;;;;17.90;99.90;;;;;;8433940;27;19924;-70
2023/06/24 04:49:16;;;;;;;;;;;17.90;99.90;;;;;;8445734;27;19931;-70
2023/06/24 04:53:18;;;;;;;;;;;17.90;99.90;;;;;;8442267;27;19924;-70
2023/06/24 04:57:27;;;;;;;;;;;18.00;99.90;;;;;;8449435;27;20028;-70
2023/06/24 05:01:29;;;;;;;;;;;18.00;99.90;;;;;;8449709;27;19932;-70
2023/06/24 05:05:30;;;;;;;;;;;18.10;99.90;;;;;;8442675;27;20010;-70
2023/06/24 05:09:37;;;;;;;;;;;18.20;99.90;;;;;;8435958;28;19924;-70
2023/06/24 05:13:39;;;;;;;;;;;18.30;99.90;;;;;;8450219;27;19951;-70
2023/06/24 05:17:42;;;;;;;;;;;18.40;99.90;;;;;;8446411;27;20026;-70
2023/06/24 05:21:44;;;;;;;;;;;18.50;99.90;;;;;;8452018;27;19959;-70
2023/06/24 05:25:46;;;;;;;;;;;18.70;99.90;;;;;;8436201;27;19938;-70
2023/06/24 05:29:47;;;;;;;;;;;18.80;99.90;;;;;;8428004;27;19927;-70
2023/06/24 05:33:49;;;;;;;;;;;19.00;99.90;;;;;;8450035;27;20246;-70
2023/06/24 05:37:51;;;;;;;;;;;19.10;99.90;;;;;;8422239;28;19924;-70
2023/06/24 05:41:52;;;;;;;;;;;19.20;99.90;;;;;;8451760;28;20371;-71
2023/06/24 05:45:54;;;;;;;;;;;19.30;99.90;;;;;;8443717;28;19972;-70
2023/06/24 06:05:06;;;;;;;;;;;19.70;99.90;;;;;;8442207;28;19984;-71
2023/06/24 06:09:09;;;;;;;;;;;19.80;99.90;;;;;;8444296;28;19928;-70
2023/06/24 06:13:10;;;;;;;;;;;19.80;99.90;;;;;;8445833;28;19947;-70
2023/06/24 06:17:13;;;;;;;;;;;19.90;99.90;;;;;;8452023;28;20603;-73
2023/06/24 06:21:15;;;;;;;;;;;20.00;99.90;;;;;;8449156;28;19972;-73
2023/06/24 06:25:17;;;;;;;;;;;20.10;99.90;;;;;;8451936;28;19977;-74
2023/06/24 06:29:18;;;;;;;;;;;20.20;99.90;;;;;;8431755;28;19934;-73
2023/06/24 06:33:20;;;;;;;;;;;20.20;99.90;;;;;;8456509;28;19924;-74
2023/06/24 06:37:22;;;;;;;;;;;20.30;99.90;;;;;;8365994;28;2260298;-73
2023/06/24 06:46:59;;;;;;;;;;;20.40;99.90;;;;;;8441077;28;19922;-72
2023/06/24 06:51:02;;;;;;;;;;;20.50;99.90;;;;;;8413688;28;19928;-74
2023/06/24 06:55:04;;;;;;;;;;;20.60;99.90;;;;;;8444158;28;19934;-73
2023/06/24 06:59:05;;;;;;;;;;;20.70;99.90;;;;;;8453198;28;19924;-73
2023/06/24 07:03:07;;;;;;;;;;;20.80;99.90;;;;;;8453124;28;19970;-74
2023/06/24 07:07:09;;;;;;;;;;;20.80;99.90;;;;;;8449014;28;19939;-73
2023/06/24 07:11:10;;;;;;;;;;;20.90;99.90;;;;;;8455349;27;19938;-73
2023/06/24 07:15:12;;;;;;;;;;;21.00;99.90;;;;;;8460938;27;19934;-72
2023/06/24 07:19:14;;;;;;;;;;;21.10;99.90;;;;;;8448333;27;20328;-72
2023/06/24 07:23:15;;;;;;;;;;;21.10;99.90;;;;;;8442852;27;19932;-72
2023/06/24 07:27:17;;;;;;;;;;;21.30;99.90;;;;;;8458223;27;19928;-73
2023/06/24 07:31:19;;;;;;;;;;;21.40;99.90;;;;;;8452458;27;20295;-73
2023/06/24 07:35:20;;;;;;;;;;;21.40;99.90;;;;;;8456560;27;19924;-72
2023/06/24 07:39:22;;;;;;;;;;;21.50;99.90;;;;;;8459202;28;20570;-73
2023/06/24 07:43:24;;;;;;;;;;;21.60;99.90;;;;;;8463234;27;20379;-73
2023/06/24 07:47:25;;;;;;;;;;;21.70;99.90;;;;;;8461387;27;19924;-73
2023/06/24 07:51:27;;;;;;;;;;;21.70;99.90;;;;;;8462537;27;19971;-73
2023/06/24 07:55:29;;;;;;;;;;;21.80;99.90;;;;;;8459251;27;19924;-72
2023/06/24 07:59:30;;;;;;;;;;;21.80;99.90;;;;;;8461865;27;19924;-73
2023/06/24 08:03:33;;;;;;;;;;;21.90;99.90;;;;;;8471089;27;20448;-73
2023/06/24 08:07:38;;;;;;;;;;;21.90;99.90;;;;;;8447075;27;19932;-73
2023/06/24 08:11:40;;;;;;;;;;;22.00;99.90;;;;;;8438920;28;19924;-72
2023/06/24 08:15:41;;;;;;;;;;;22.00;99.90;;;;;;8436275;27;19940;-73
2023/06/24 08:19:43;;;;;;;;;;;22.10;99.90;;;;;;8439292;28;19972;-73
2023/06/24 08:23:45;;;;;;;;;;;22.10;99.90;;;;;;8438151;27;19957;-74
2023/06/24 08:27:47;;;;;;;;;;;22.20;99.90;;;;;;8439257;27;19932;-74
2023/06/24 08:31:49;;;;;;;;;;;22.20;99.90;;;;;;8425632;27;19924;-73
2023/06/24 08:35:50;;;;;;;;;;;22.40;99.90;;;;;;8432340;27;19927;-72
2023/06/24 08:39:52;;;;;;;;;;;22.40;99.90;;;;;;8426919;27;19935;-73
2023/06/24 08:43:54;;;;;;;;;;;22.50;99.90;;;;;;8428094;28;19931;-73
2023/06/24 08:47:56;;;;;;;;;;;22.60;99.90;;;;;;8428049;27;19932;-72
2023/06/24 08:52:00;;;;;;;;;;;22.70;99.90;;;;;;8432820;27;19924;-74
2023/06/24 08:56:02;;;;;;;;;;;22.70;99.90;;;;;;8432424;28;20331;-73
2023/06/24 09:00:05;;;;;;;;;;;22.80;99.90;;;;;;8434928;27;19932;-73
2023/06/24 09:04:07;;;;;;;;;;;22.80;99.90;;;;;;8426913;27;19939;-73
2023/06/24 09:08:08;;;;;;;;;;;22.80;99.90;;;;;;8429696;28;19932;-73
2023/06/24 09:12:11;;;;;;;;;;;22.90;99.90;;;;;;8444089;27;19924;-73
2023/06/24 09:16:15;;;;;;;;;;;23.00;99.90;;;;;;8428083;27;19955;-73
2023/06/24 09:20:21;;;;;;;;;;;23.00;99.90;;;;;;8433723;28;19924;-73
2023/06/24 09:24:26;;;;;;;;;;;23.10;99.90;;;;;;8452538;27;19944;-74
2023/06/24 09:28:28;;;;;;;;;;;23.20;99.90;;;;;;8434372;27;19928;-73
2023/06/24 09:32:30;;;;;;;;;;;23.20;99.90;;;;;;8417249;28;19940;-73
2023/06/24 09:36:32;;;;;;;;;;;23.30;99.90;;;;;;8432312;28;19928;-73
2023/06/24 09:40:34;;;;;;;;;;;23.40;99.90;;;;;;8413179;28;20296;-73
2023/06/24 09:44:36;;;;;;;;;;;23.40;99.90;;;;;;8418875;28;19924;-72
2023/06/24 09:48:38;;;;;;;;;;;23.50;99.90;;;;;;8410566;28;19924;-74
2023/06/24 09:52:41;;;;;;;;;;;23.50;99.90;;;;;;8431388;28;19996;-73
2023/06/24 09:56:46;;;;;;;;;;;23.50;99.90;;;;;;8422888;28;19981;-73
2023/06/24 10:00:49;;;;;;;;;;;23.60;99.90;;;;;;8431697;28;20037;-71
2023/06/24 10:04:51;;;;;;;;;;;23.70;99.90;;;;;;8441065;28;19924;-72
2023/06/24 10:08:53;;;;;;;;;;;23.80;99.90;;;;;;8433802;28;19928;-72
2023/06/24 10:12:54;;;;;;;;;;;23.80;99.90;;;;;;8427342;28;19923;-73
2023/06/24 10:17:03;;;;;;;;;;;23.90;99.90;;;;;;8432822;28;19923;-73
2023/06/24 10:21:06;;;;;;;;;;;24.00;99.90;;;;;;8428785;28;19932;-74
2023/06/24 10:25:11;;;;;;;;;;;24.00;99.90;;;;;;8412634;28;19928;-72
2023/06/24 10:29:14;;;;;;;;;;;24.10;99.90;;;;;;8407816;28;20501;-73
2023/06/24 10:33:15;;;;;;;;;;;24.20;99.90;;;;;;8426598;28;20366;-73
2023/06/24 10:37:17;;;;;;;;;;;24.20;99.90;;;;;;8434243;27;19927;-73
2023/06/24 10:41:19;;;;;;;;;;;24.30;99.90;;;;;;8435261;27;19981;-74
2023/06/24 10:45:22;;;;;;;;;;;24.30;99.90;;;;;;8437917;28;20481;-73
2023/06/24 10:49:23;;;;;;;;;;;24.40;99.90;;;;;;8428750;27;20376;-73
2023/06/24 10:53:25;;;;;;;;;;;24.50;99.90;;;;;;8429220;27;19932;-73
2023/06/24 10:57:27;;;;;;;;;;;24.50;99.90;;;;;;8428897;27;20345;-73
2023/06/24 11:01:29;;;;;;;;;;;24.60;99.90;;;;;;8443838;27;20295;-73
2023/06/24 11:05:31;;;;;;;;;;;24.60;99.90;;;;;;8431223;27;19957;-73
2023/06/24 11:09:32;;;;;;;;;;;24.70;99.90;;;;;;8419907;28;20442;-73
2023/06/24 11:13:34;;;;;;;;;;;24.70;99.90;;;;;;8434539;27;19932;-74
2023/06/24 11:17:36;;;;;;;;;;;24.80;99.90;;;;;;8427370;28;19928;-73
2023/06/24 11:21:38;;;;;;;;;;;24.90;99.90;;;;;;8409709;27;19924;-73
2023/06/24 11:25:41;;;;;;;;;;;25.00;99.90;;;;;;8431692;27;19928;-72
2023/06/24 11:29:44;;;;;;;;;;;25.10;99.90;;;;;;8432713;27;19928;-73
2023/06/24 11:33:49;;;;;;;;;;;25.10;99.90;;;;;;8432731;27;20284;-73
2023/06/24 11:37:51;;;;;;;;;;;25.20;99.90;;;;;;8426530;27;19977;-73
2023/06/24 11:41:53;;;;;;;;;;;25.20;99.90;;;;;;8434072;27;19928;-73
2023/06/24 11:45:55;;;;;;;;;;;25.20;99.90;;;;;;8421057;27;19977;-73
2023/06/24 11:49:58;;;;;;;;;;;25.30;99.90;;;;;;8435030;27;20336;-72
2023/06/24 11:54:01;;;;;;;;;;;25.40;99.90;;;;;;8422062;28;19931;-74
2023/06/24 11:58:06;;;;;;;;;;;25.40;99.90;;;;;;8417185;28;19927;-73
2023/06/24 12:02:13;;;;;;;;;;;25.50;99.90;;;;;;8428510;27;19934;-72
2023/06/24 12:06:14;;;;;;;;;;;25.60;99.90;;;;;;8425132;27;19935;-73
2023/06/24 12:10:16;;;;;;;;;;;25.60;99.90;;;;;;8440402;27;19974;-74
2023/06/24 12:14:18;;;;;;;;;;;25.70;99.90;;;;;;8407886;28;19972;-73
2023/06/24 12:18:20;;;;;;;;;;;25.80;99.90;;;;;;8425689;28;20295;-73
2023/06/24 12:22:21;;;;;;;;;;;25.80;99.90;;;;;;8426841;28;19931;-73
2023/06/24 12:26:23;;;;;;;;;;;25.90;99.90;;;;;;8430196;28;19958;-73
2023/06/24 12:30:25;;;;;;;;;;;25.90;99.90;;;;;;8411432;27;20387;-73
2023/06/24 12:34:26;;;;;;;;;;;26.00;99.90;;;;;;8427051;28;22724;-73
2023/06/24 12:38:28;;;;;;;;;;;25.90;99.90;;;;;;8425936;28;19928;-73
2023/06/24 12:42:30;;;;;;;;;;;25.90;99.90;;;;;;8424488;28;19928;-73
2023/06/24 12:46:31;;;;;;;;;;;26.00;99.90;;;;;;8443818;27;20387;-73
2023/06/24 12:50:33;;;;;;;;;;;26.10;99.90;;;;;;8426057;28;20349;-73
2023/06/24 12:54:35;;;;;;;;;;;26.20;99.90;;;;;;8425909;28;19954;-73
2023/06/24 12:58:37;;;;;;;;;;;26.30;99.90;;;;;;8422461;28;19935;-74
2023/06/24 13:02:39;;;;;;;;;;;26.30;99.90;;;;;;8417912;28;20284;-73
2023/06/24 13:06:41;;;;;;;;;;;26.40;99.90;;;;;;8423473;28;19924;-73
2023/06/24 13:10:42;;;;;;;;;;;26.40;99.90;;;;;;8427095;28;19924;-73
2023/06/24 13:14:44;;;;;;;;;;;26.40;99.90;;;;;;8425789;28;19931;-73
2023/06/24 13:18:46;;;;;;;;;;;26.40;99.90;;;;;;8409895;28;20037;-73
2023/06/24 13:22:47;;;;;;;;;;;26.40;99.90;;;;;;8431230;28;19932;-74
2023/06/24 13:26:49;;;;;;;;;;;26.40;99.90;;;;;;8429406;28;20440;-74
2023/06/24 13:30:54;;;;;;;;;;;26.40;99.90;;;;;;8423614;27;20040;-73
2023/06/24 13:34:56;;;;;;;;;;;26.50;99.90;;;;;;8425048;28;20318;-73
2023/06/24 13:38:57;;;;;;;;;;;26.60;99.90;;;;;;8427721;27;19928;-73
2023/06/24 13:42:59;;;;;;;;;;;26.60;99.90;;;;;;8409996;28;19932;-73
2023/06/24 13:47:01;;;;;;;;;;;26.70;99.90;;;;;;8423094;28;20272;-73
2023/06/24 13:51:03;;;;;;;;;;;26.80;99.90;;;;;;8424351;28;20030;-73
2023/06/24 13:55:05;;;;;;;;;;;26.80;99.90;;;;;;8429139;28;20366;-73
2023/06/24 13:59:07;;;;;;;;;;;26.90;99.90;;;;;;8424718;28;19928;-73
2023/06/24 14:03:09;;;;;;;;;;;26.90;99.90;;;;;;8430146;28;19961;-73
2023/06/24 14:07:10;;;;;;;;;;;27.00;99.90;;;;;;8425519;28;19928;-73
2023/06/24 14:11:12;;;;;;;;;;;26.90;99.90;;;;;;8422230;28;19974;-73
2023/06/24 14:15:14;;;;;;;;;;;27.00;99.90;;;;;;8436108;28;20444;-74
2023/06/24 14:19:16;;;;;;;;;;;27.10;99.90;;;;;;8430066;27;19924;-74
2023/06/24 14:23:18;;;;;;;;;;;27.10;99.90;;;;;;8434548;28;19940;-74
2023/06/24 14:27:20;;;;;;;;;;;27.10;99.90;;;;;;8435685;28;19931;-74
2023/06/24 14:31:21;;;;;;;;;;;27.20;99.90;;;;;;8431794;28;19993;-74
2023/06/24 14:35:23;;;;;;;;;;;27.20;99.90;;;;;;8432300;27;19924;-74
2023/06/24 14:39:25;;;;;;;;;;;27.30;99.90;;;;;;8433920;27;19928;-74
2023/06/24 14:43:28;;;;;;;;;;;27.30;99.90;;;;;;8436210;27;19928;-74
2023/06/24 15:02:41;;;;;;;;;;;27.70;99.90;;;;;;8435190;28;19919;-73
2023/06/24 15:06:43;;;;;;;;;;;27.70;99.90;;;;;;8430973;28;19970;-74
2023/06/24 15:10:45;;;;;;;;;;;27.70;99.90;;;;;;8430054;28;19955;-74
2023/06/24 15:14:48;;;;;;;;;;;27.70;99.90;;;;;;8430671;27;19924;-73
2023/06/24 15:18:50;;;;;;;;;;;27.70;99.90;;;;;;8433234;28;20068;-74
2023/06/24 15:22:51;;;;;;;;;;;27.60;99.90;;;;;;8432173;27;19973;-74
2023/06/24 15:26:53;;;;;;;;;;;27.70;99.90;;;;;;8430463;28;19939;-73
2023/06/24 15:30:55;;;;;;;;;;;27.80;99.90;;;;;;8416427;27;20428;-74
2023/06/24 15:34:56;;;;;;;;;;;27.80;99.90;;;;;;8432149;27;20364;-73
2023/06/24 15:38:58;;;;;;;;;;;27.80;99.90;;;;;;8378924;28;19933;-73
2023/06/24 15:43:00;;;;;;;;;;;27.90;99.90;;;;;;8367503;28;19929;-73
2023/06/24 15:47:03;;;;;;;;;;;28.00;99.90;;;;;;8362180;28;19932;-73
2023/06/24 15:51:05;;;;;;;;;;;28.10;99.90;;;;;;8368246;28;19925;-74
2023/06/24 15:55:08;;;;;;;;;;;28.20;99.90;;;;;;8367192;28;19935;-73
2023/06/24 15:59:10;;;;;;;;;;;28.30;99.90;;;;;;8361749;28;19924;-74
2023/06/24 16:03:11;;;;;;;;;;;28.40;99.90;;;;;;8366932;28;19932;-74
2023/06/24 16:07:13;;;;;;;;;;;28.50;99.90;;;;;;8367786;28;19979;-73
2023/06/24 16:11:15;;;;;;;;;;;28.60;99.90;;;;;;8366522;28;19928;-74
2023/06/24 16:15:16;;;;;;;;;;;28.80;99.90;;;;;;8364909;28;20016;-73
2023/06/24 16:19:18;;;;;;;;;;;29.00;99.90;;;;;;8344651;28;20311;-73
2023/06/24 16:23:20;;;;;;;;;;;29.10;99.90;;;;;;8362470;28;20357;-73
2023/06/24 16:27:22;;;;;;;;;;;29.10;99.90;;;;;;8370157;28;19999;-73
2023/06/24 16:31:24;;;;;;;;;;;29.20;99.90;;;;;;8361701;28;20292;-73
2023/06/24 16:35:25;;;;;;;;;;;29.50;99.90;;;;;;8363004;28;19973;-73
2023/06/24 16:39:27;;;;;;;;;;;29.70;99.90;;;;;;8391174;28;19951;-73
2023/06/24 16:43:29;;;;;;;;;;;29.90;99.90;;;;;;8375416;28;19951;-73
2023/06/24 16:47:31;;;;;;;;;;;30.10;99.90;;;;;;8392124;28;19924;-74
2023/06/24 16:51:33;;;;;;;;;;;30.20;99.90;;;;;;8391184;28;19935;-73
2023/06/24 16:55:35;;;;;;;;;;;30.20;99.90;;;;;;8396345;28;19928;-73
2023/06/24 16:59:36;;;;;;;;;;;30.20;99.90;;;;;;8373894;28;19927;-73
2023/06/24 17:03:38;;;;;;;;;;;30.20;99.90;;;;;;8394557;28;19931;-73
2023/06/24 17:07:39;;;;;;;;;;;30.20;99.90;;;;;;8412620;27;19928;-74
2023/06/24 17:11:41;;;;;;;;;;;30.10;99.90;;;;;;8394320;28;19932;-73
2023/06/24 17:15:43;;;;;;;;;;;29.80;99.90;;;;;;8392472;28;19928;-73
2023/06/24 17:19:44;;;;;;;;;;;29.60;99.90;;;;;;8387686;28;19925;-74
2023/06/24 17:23:46;;;;;;;;;;;29.40;99.90;;;;;;8375160;28;19932;-73
2023/06/24 17:27:48;;;;;;;;;;;29.20;99.90;;;;;;8373217;28;19933;-73
2023/06/24 17:31:50;;;;;;;;;;;29.10;99.90;;;;;;8394638;28;19931;-73
2023/06/24 17:35:52;;;;;;;;;;;29.00;99.90;;;;;;8383411;28;19924;-74
2023/06/24 17:39:53;;;;;;;;;;;28.80;99.90;;;;;;8383360;28;19928;-74
2023/06/24 17:43:55;;;;;;;;;;;28.50;99.90;;;;;;8398173;28;19924;-73
2023/06/24 17:47:56;;;;;;;;;;;28.40;99.90;;;;;;8394677;28;19928;-73
2023/06/24 17:51:58;;;;;;;;;;;28.30;99.90;;;;;;8392734;28;20053;-74
2023/06/24 17:56:00;;;;;;;;;;;28.20;99.90;;;;;;8391642;28;19940;-74
2023/06/24 18:00:01;;;;;;;;;;;28.00;99.90;;;;;;8391887;28;19935;-73
2023/06/24 18:04:03;;;;;;;;;;;27.90;99.90;;;;;;8389574;28;19928;-74
2023/06/24 18:08:05;;;;;;;;;;;27.70;99.90;;;;;;8395480;28;19924;-74
2023/06/24 18:12:07;;;;;;;;;;;27.70;99.90;;;;;;8399318;28;19924;-74
2023/06/24 18:16:08;;;;;;;;;;;27.70;99.90;;;;;;8384443;28;19987;-74
2023/06/24 18:20:10;;;;;;;;;;;27.70;99.90;;;;;;8382468;28;19925;-74
2023/06/24 18:24:12;;;;;;;;;;;27.60;99.90;;;;;;8399794;28;20376;-74
2023/06/24 18:28:14;;;;;;;;;;;27.60;99.90;;;;;;8394936;28;19936;-75
2023/06/24 18:32:15;;;;;;;;;;;27.50;99.90;;;;;;8395053;28;19935;-74
2023/06/24 18:36:17;;;;;;;;;;;27.40;99.90;;;;;;8378419;28;20272;-74
2023/06/24 18:40:20;;;;;;;;;;;27.40;99.90;;;;;;8397458;28;19934;-74
2023/06/24 18:44:21;;;;;;;;;;;27.30;99.90;;;;;;8399795;28;19924;-74
2023/06/24 18:48:23;;;;;;;;;;;27.30;99.90;;;;;;8408912;28;19947;-74
2023/06/24 18:52:25;;;;;;;;;;;27.30;99.90;;;;;;8400940;28;20042;-73
2023/06/24 18:56:26;;;;;;;;;;;27.30;99.90;;;;;;8392767;28;20325;-73
2023/06/24 19:00:29;;;;;;;;;;;27.20;99.90;;;;;;8400336;28;19940;-73
2023/06/24 19:04:30;;;;;;;;;;;27.10;99.90;;;;;;8398166;28;19945;-73
2023/06/24 19:08:34;;;;;;;;;;;27.00;99.90;;;;;;8396453;28;19939;-73
2023/06/24 19:12:35;;;;;;;;;;;27.00;99.90;;;;;;8398125;28;19935;-73
2023/06/24 19:16:37;;;;;;;;;;;26.90;99.90;;;;;;8401172;28;19928;-73
2023/06/24 19:20:39;;;;;;;;;;;26.80;99.90;;;;;;8402658;28;19928;-73
2023/06/24 19:24:40;;;;;;;;;;;26.80;99.90;;;;;;8400413;28;19925;-73
2023/06/24 19:28:42;;;;;;;;;;;26.70;99.90;;;;;;8398379;28;19931;-73
2023/06/24 19:32:45;;;;;;;;;;;26.60;99.90;;;;;;8396689;28;19932;-73
2023/06/24 19:36:54;;;;;;;;;;;26.50;99.90;;;;;;8390232;28;19984;-73
2023/06/24 19:40:56;;;;;;;;;;;26.40;99.90;;;;;;8382194;28;20028;-73
2023/06/24 19:44:58;;;;;;;;;;;26.40;99.90;;;;;;8391663;28;19935;-73
2023/06/24 19:48:59;;;;;;;;;;;26.30;99.90;;;;;;8398300;28;19932;-73
2023/06/24 19:53:01;;;;;;;;;;;26.20;99.90;;;;;;8393637;28;19932;-73
2023/06/24 19:57:03;;;;;;;;;;;26.20;99.90;;;;;;8387555;28;20426;-73
2023/06/24 20:01:05;;;;;;;;;;;26.10;99.90;;;;;;8392581;28;19929;-73
2023/06/24 20:05:07;;;;;;;;;;;26.00;99.90;;;;;;8391802;28;20567;-73
2023/06/24 20:09:08;;;;;;;;;;;26.00;99.90;;;;;;8383906;28;19928;-73
2023/06/24 20:13:10;;;;;;;;;;;26.00;99.90;;;;;;8379070;28;19970;-73
2023/06/24 20:17:12;;;;;;;;;;;25.90;99.90;;;;;;8394905;28;19928;-73
2023/06/24 20:21:14;;;;;;;;;;;25.80;99.90;;;;;;8393299;28;19940;-73
2023/06/24 20:25:16;;;;;;;;;;;25.80;99.90;;;;;;8390941;28;20356;-73
2023/06/24 20:29:18;;;;;;;;;;;25.60;99.90;;;;;;8378496;28;19928;-73
2023/06/24 20:33:23;;;;;;;;;;;25.50;99.90;;;;;;8395540;28;19936;-73
2023/06/24 20:37:24;;;;;;;;;;;25.30;99.90;;;;;;8390936;28;19935;-73
2023/06/24 20:41:31;;;;;;;;;;;25.20;99.90;;;;;;8392144;28;20384;-72
2023/06/24 20:45:33;;;;;;;;;;;25.10;99.90;;;;;;8377953;28;19928;-73
2023/06/24 20:49:35;;;;;;;;;;;25.00;99.90;;;;;;8396014;28;19938;-73
2023/06/24 20:53:36;;;;;;;;;;;24.90;99.90;;;;;;8409330;28;19924;-73
2023/06/24 20:57:38;;;;;;;;;;;24.90;99.90;;;;;;8390530;28;19924;-72
2023/06/24 21:01:40;;;;;;;;;;;24.80;99.90;;;;;;8401720;28;20370;-73
2023/06/24 21:05:42;;;;;;;;;;;24.80;99.90;;;;;;8417519;28;19929;-72
2023/06/24 21:09:43;;;;;;;;;;;24.70;99.90;;;;;;8446332;27;19924;-72
2023/06/24 21:13:45;;;;;;;;;;;24.70;99.90;;;;;;8415182;28;19978;-72
2023/06/24 21:17:48;;;;;;;;;;;24.70;99.90;;;;;;8406822;28;19924;-72
2023/06/24 21:21:50;;;;;;;;;;;24.60;99.90;;;;;;8404378;28;19928;-73
2023/06/24 21:25:55;;;;;;;;;;;24.50;99.90;;;;;;8428745;28;20366;-73
2023/06/24 21:29:56;;;;;;;;;;;24.40;99.90;;;;;;8430782;27;19924;-73
2023/06/24 21:33:58;;;;;;;;;;;24.30;99.90;;;;;;8415916;28;19924;-72
2023/06/24 21:38:00;;;;;;;;;;;24.20;99.90;;;;;;8414190;28;19982;-73
2023/06/24 21:42:02;;;;;;;;;;;24.00;99.90;;;;;;8418367;28;19928;-72
2023/06/24 21:46:03;;;;;;;;;;;23.90;99.90;;;;;;8421024;28;20364;-72
2023/06/24 21:50:05;;;;;;;;;;;23.80;99.90;;;;;;8391628;28;19924;-72
2023/06/24 21:54:07;;;;;;;;;;;23.70;99.90;;;;;;8408270;28;19928;-72
2023/06/24 21:58:08;;;;;;;;;;;23.60;99.90;;;;;;8398615;28;20323;-72
2023/06/24 22:07:14;;;;;;;;;;;23.50;99.90;;;;;;8403134;28;19958;-72
2023/06/24 22:11:15;;;;;;;;;;;23.50;99.90;;;;;;8393650;28;20380;-72
2023/06/24 22:15:17;;;;;;;;;;;23.50;99.90;;;;;;8415924;28;19925;-73
2023/06/24 22:19:18;;;;;;;;;;;23.50;99.90;;;;;;8425514;28;19970;-72
2023/06/24 22:23:20;;;;;;;;;;;23.50;99.90;;;;;;8417080;28;19952;-73
2023/06/24 22:27:22;;;;;;;;;;;23.40;99.90;;;;;;8420580;28;19923;-72
2023/06/24 22:31:24;;;;;;;;;;;23.40;99.90;;;;;;8423212;28;19932;-72
2023/06/24 22:35:25;;;;;;;;;;;23.30;99.90;;;;;;8419553;28;20014;-72
2023/06/24 22:39:27;;;;;;;;;;;23.20;99.90;;;;;;8405100;28;19932;-72
2023/06/24 22:43:29;;;;;;;;;;;23.10;99.90;;;;;;8397047;28;19935;-72
2023/06/24 22:47:30;;;;;;;;;;;23.00;99.90;;;;;;8438609;28;20058;-72
2023/06/24 22:51:32;;;;;;;;;;;22.80;99.90;;;;;;8422971;28;19977;-72
2023/06/24 22:55:34;;;;;;;;;;;22.70;99.90;;;;;;8410055;28;19928;-72
2023/06/24 23:05:13;;;;;;;;;;;22.60;99.90;;;;;;8416076;28;19958;-72
2023/06/24 23:09:15;;;;;;;;;;;22.50;99.90;;;;;;8429894;27;20448;-72
2023/06/24 23:13:17;;;;;;;;;;;22.50;99.90;;;;;;8405574;28;20439;-72
2023/06/24 23:17:20;;;;;;;;;;;22.40;99.90;;;;;;8433877;28;19924;-72
2023/06/24 23:21:22;;;;;;;;;;;22.40;99.90;;;;;;8417903;28;19924;-72
2023/06/24 23:25:28;;;;;;;;;;;22.40;99.90;;;;;;8421176;28;19931;-72
2023/06/24 23:29:32;;;;;;;;;;;22.40;99.90;;;;;;8429917;28;19928;-72
2023/06/24 23:33:34;;;;;;;;;;;22.40;99.90;;;;;;8398370;28;19924;-72
2023/06/24 23:37:36;;;;;;;;;;;22.40;99.90;;;;;;8423864;28;20312;-72
2023/06/24 23:41:39;;;;;;;;;;;22.50;99.90;;;;;;8416882;28;19924;-73
2023/06/24 23:45:47;;;;;;;;;;;22.50;99.90;;;;;;8428668;27;19925;-73
2023/06/24 23:49:49;;;;;;;;;;;22.50;99.90;;;;;;8433221;28;19924;-72
2023/06/24 23:58:55;;;;;;;;;;;22.50;99.90;;;;;;8424638;28;19924;-72
